Time;durP1;ratioP1;P1;durP2;ratioP2;P2;SDS_P1;SDS_P2;PMS_P1;PMS_P2;Temp;Humidity;BMP_temperature;BMP_pressure;BME280_temperature;BME280_humidity;BME280_pressure;Samples;Min_cycle;Max_cycle;Signal;HPM_P1;HPM_P2
2021/06/28 00:04:13;;;;;;;14.70;8.95;;;;;;;19.35;61.36;100848.28;5077344;55;1140739;-78
2021/06/28 00:09:19;;;;;;;14.93;8.88;;;;;;;19.45;61.49;100849.78;5077220;56;1140654;-75
2021/06/28 00:14:25;;;;;;;16.27;8.23;;;;;;;19.54;61.50;100849.32;5077424;56;1140723;-81
2021/06/28 00:19:30;;;;;;;10.82;7.75;;;;;;;19.65;61.63;100848.97;5077093;56;1140743;-80
2021/06/28 00:24:36;;;;;;;15.05;8.40;;;;;;;19.49;60.82;100848.95;5077726;56;1140758;-81
2021/06/28 00:29:42;;;;;;;18.37;8.10;;;;;;;19.30;61.07;100847.44;5083521;56;1140936;-78
2021/06/28 00:34:47;;;;;;;13.10;6.90;;;;;;;19.31;61.83;100841.91;5111413;56;1140673;-77
2021/06/28 00:39:53;;;;;;;11.40;8.08;;;;;;;19.29;61.43;100842.57;5111523;57;1140985;-78
2021/06/28 00:44:59;;;;;;;12.28;7.45;;;;;;;19.19;61.70;100840.56;5111304;56;1140976;-79
2021/06/28 00:50:05;;;;;;;10.10;6.75;;;;;;;19.23;62.00;100845.94;5111376;56;1140698;-79
2021/06/28 00:55:12;;;;;;;10.32;6.90;;;;;;;19.27;61.79;100836.53;5065953;57;1140877;-77
2021/06/28 01:00:19;;;;;;;7.00;5.87;;;;;;;19.33;61.80;100840.40;5057652;56;1140739;-77
2021/06/28 01:05:30;;;;;;;11.95;6.47;;;;;;;19.35;61.57;100837.05;5057567;56;1138652;-76
2021/06/28 01:10:38;;;;;;;10.34;6.76;;;;;;;19.11;60.81;100831.16;5067177;56;1140771;-79
2021/06/28 01:15:45;;;;;;;11.20;6.27;;;;;;;18.90;61.24;100838.86;5057560;56;1140751;-75
2021/06/28 01:20:51;;;;;;;8.80;6.30;;;;;;;18.71;61.57;100831.95;5057475;56;1140703;-80
2021/06/28 01:26:07;;;;;;;8.95;6.33;;;;;;;18.61;62.28;100829.42;5057377;56;1138584;-76
2021/06/28 01:31:14;;;;;;;10.78;6.17;;;;;;;18.63;62.73;100826.59;5057014;56;1138722;-74
2021/06/28 01:36:20;;;;;;;6.78;5.50;;;;;;;18.67;62.53;100831.09;5055052;56;1140973;-77
2021/06/28 01:41:26;;;;;;;9.10;5.78;;;;;;;18.66;62.18;100838.79;5055255;56;1138702;-77
2021/06/28 01:46:31;;;;;;;6.50;5.90;;;;;;;18.23;62.00;100838.78;5055159;56;1138601;-76
2021/06/28 01:51:38;;;;;;;7.83;6.33;;;;;;;17.82;62.73;100834.22;5065252;56;1139029;-80
2021/06/28 01:56:43;;;;;;;5.50;4.92;;;;;;;17.83;64.06;100847.45;5139744;56;1138837;-81
2021/06/28 02:01:49;;;;;;;12.33;7.28;;;;;;;17.89;64.02;100854.83;5139552;56;1138694;-77
2021/06/28 02:06:57;;;;;;;17.10;8.93;;;;;;;17.72;63.61;100861.59;5139491;56;1140719;-79
2021/06/28 02:12:03;;;;;;;13.13;8.33;;;;;;;17.78;64.57;100855.59;5139240;56;1140865;-81
2021/06/28 02:17:09;;;;;;;8.48;6.37;;;;;;;17.98;65.06;100853.05;5139265;56;1140755;-80
2021/06/28 02:22:15;;;;;;;6.05;5.47;;;;;;;18.14;65.08;100852.30;5139295;56;1138629;-84
2021/06/28 02:27:21;;;;;;;7.22;6.45;;;;;;;18.23;64.68;100841.45;5139304;56;1138797;-80
2021/06/28 02:32:27;;;;;;;6.60;5.85;;;;;;;18.24;64.29;100844.48;5139646;56;1138651;-75
2021/06/28 02:37:33;;;;;;;6.58;5.60;;;;;;;18.23;64.38;100838.78;5139453;55;1138573;-82
2021/06/28 02:42:39;;;;;;;7.05;5.20;;;;;;;18.28;64.49;100828.44;5139685;56;1138795;-78
2021/06/28 02:47:45;;;;;;;10.80;6.60;;;;;;;18.28;64.21;100828.44;5139874;55;1138754;-84
2021/06/28 02:52:51;;;;;;;15.35;5.85;;;;;;;18.28;64.73;100825.77;5135307;56;1140848;-79
2021/06/28 02:57:59;;;;;;;17.50;6.58;;;;;;;18.29;64.73;100817.23;5056366;57;1140618;-75
2021/06/28 03:03:05;;;;;;;10.75;6.37;;;;;;;18.17;64.35;100815.35;5076944;56;1140681;-77
2021/06/28 03:08:11;;;;;;;12.85;6.20;;;;;;;18.15;64.42;100823.20;5076683;56;1140808;-79
2021/06/28 03:13:17;;;;;;;12.30;6.47;;;;;;;18.14;64.41;100810.81;5076914;56;1140728;-73
2021/06/28 03:18:22;;;;;;;10.18;6.12;;;;;;;18.13;64.45;100818.50;5077060;56;1140766;-79
2021/06/28 03:23:29;;;;;;;14.70;6.55;;;;;;;18.15;64.43;100821.86;5076773;56;1140648;-76
2021/06/28 03:28:35;;;;;;;10.03;6.47;;;;;;;18.18;64.39;100816.19;5076994;55;1140745;-80
2021/06/28 03:33:41;;;;;;;12.57;7.57;;;;;;;18.09;64.40;100813.95;5076881;56;1140660;-78
2021/06/28 03:38:47;;;;;;;11.10;6.33;;;;;;;18.05;64.79;100815.27;5085669;56;1140778;-75
2021/06/28 03:43:53;;;;;;;6.20;5.60;;;;;;;17.95;64.86;100813.22;5085731;56;1140673;-78
2021/06/28 03:48:58;;;;;;;10.68;7.20;;;;;;;17.71;65.52;100819.28;5086179;56;1138785;-79
2021/06/28 03:54:05;;;;;;;6.67;5.97;;;;;;;17.59;66.21;100819.15;5137929;55;1140664;-81
2021/06/28 03:59:10;;;;;;;7.33;6.22;;;;;;;17.55;67.13;100814.64;5171435;55;1138568;-80
2021/06/28 04:04:17;;;;;;;7.68;6.00;;;;;;;17.66;67.76;100810.88;5171304;55;1138852;-79
2021/06/28 04:09:22;;;;;;;6.87;6.10;;;;;;;17.82;68.27;100813.66;5168284;55;1138680;-78
2021/06/28 04:14:28;;;;;;;7.00;6.30;;;;;;;17.94;68.09;100808.86;5152778;55;1138650;-77
2021/06/28 04:19:34;;;;;;;11.20;7.53;;;;;;;17.90;68.09;100805.66;5165928;55;1138739;-77
2021/06/28 04:24:39;;;;;;;10.35;7.28;;;;;;;17.92;68.44;100805.50;5167917;55;1140750;-77
2021/06/28 04:29:45;;;;;;;7.28;6.67;;;;;;;17.87;68.79;100815.34;5171396;55;1140740;-81
2021/06/28 04:34:51;;;;;;;10.28;6.12;;;;;;;17.87;69.50;100810.52;5162948;55;1138771;-79
2021/06/28 04:39:56;;;;;;;12.25;6.03;;;;;;;18.05;70.00;100807.23;5140629;56;1140697;-77
2021/06/28 04:45:03;;;;;;;18.27;7.50;;;;;;;18.22;69.95;100802.30;5144438;55;1140752;-78
2021/06/28 04:50:10;;;;;;;9.83;6.45;;;;;;;18.28;70.18;100803.00;5138846;56;1140880;-77
2021/06/28 04:55:17;;;;;;;11.10;7.47;;;;;;;18.34;70.35;100804.67;5151135;55;1138642;-77
2021/06/28 05:00:25;;;;;;;6.83;6.22;;;;;;;18.44;70.58;100799.54;5145864;56;1140978;-78
2021/06/28 05:05:31;;;;;;;9.98;6.30;;;;;;;18.56;70.51;100796.89;5149155;55;1138521;-73
2021/06/28 05:10:37;;;;;;;9.83;5.90;;;;;;;18.74;70.58;100802.66;5150899;55;1138532;-85
2021/06/28 05:15:43;;;;;;;8.28;5.60;;;;;;;18.93;70.69;100806.37;5157351;55;1138689;-78
2021/06/28 05:20:48;;;;;;;6.28;5.47;;;;;;;19.14;70.68;100808.55;5157127;55;1138767;-81
2021/06/28 05:25:56;;;;;;;6.60;4.30;;;;;;;19.29;70.45;100802.84;5147963;56;1138846;-79
2021/06/28 05:31:03;;;;;;;8.88;4.40;;;;;;;19.38;69.87;100807.72;5157565;56;1138689;-75
2021/06/28 05:36:09;;;;;;;8.05;4.42;;;;;;;19.47;70.02;100815.58;5157664;55;1138721;-79
2021/06/28 05:41:16;;;;;;;5.28;4.70;;;;;;;19.59;70.56;100822.80;5189696;55;1138637;-80
2021/06/28 05:46:22;;;;;;;4.47;4.17;;;;;;;19.64;70.42;100815.92;5197344;56;1138815;-75
2021/06/28 05:51:28;;;;;;;3.95;3.40;;;;;;;19.76;70.03;100829.81;5174293;55;1138654;-76
2021/06/28 05:56:33;;;;;;;3.77;3.33;;;;;;;19.91;69.67;100836.66;5134749;55;1138635;-77
2021/06/28 06:01:40;;;;;;;4.05;3.50;;;;;;;20.02;69.02;100836.28;5120135;56;1138724;-79
2021/06/28 06:06:46;;;;;;;6.28;3.17;;;;;;;20.12;68.89;100834.77;5152033;56;1138827;-77
2021/06/28 06:11:51;;;;;;;6.00;3.67;;;;;;;20.20;68.26;100837.41;5062552;56;1138797;-80
2021/06/28 06:16:58;;;;;;;3.65;3.17;;;;;;;20.23;67.77;100839.25;5058940;56;1138639;-85
2021/06/28 06:22:04;;;;;;;3.17;2.87;;;;;;;20.28;67.54;100845.45;5081042;55;1138687;-83
2021/06/28 06:27:10;;;;;;;2.70;2.60;;;;;;;20.36;66.53;100848.95;5194115;55;1138869;-84
2021/06/28 06:32:15;;;;;;;3.37;2.77;;;;;;;20.43;65.89;100855.83;5193520;55;1138563;-81
2021/06/28 06:37:21;;;;;;;2.95;2.65;;;;;;;20.56;66.52;100848.04;5117225;56;1138651;-81
2021/06/28 06:42:27;;;;;;;3.15;2.95;;;;;;;20.69;66.30;100855.02;5068670;56;1138712;-85
2021/06/28 06:47:32;;;;;;;3.30;2.85;;;;;;;20.81;65.12;100858.14;5024658;56;1138749;-82
2021/06/28 06:52:38;;;;;;;2.30;2.02;;;;;;;20.94;64.85;100868.30;5112080;55;1138803;-81
2021/06/28 06:57:45;;;;;;;3.40;3.10;;;;;;;21.04;64.07;100872.45;5074505;55;1138690;-84
2021/06/28 07:02:51;;;;;;;8.45;3.42;;;;;;;21.12;63.69;100872.06;5000893;57;1138732;-89
2021/06/28 07:07:57;;;;;;;5.50;3.75;;;;;;;21.18;63.92;100874.88;5003723;57;1138832;-77
2021/06/28 07:13:02;;;;;;;4.25;3.83;;;;;;;21.27;63.30;100881.05;5003230;57;1138616;-81
2021/06/28 07:18:08;;;;;;;3.17;3.00;;;;;;;21.38;63.38;100877.46;5010074;56;1138877;-80
2021/06/28 07:23:14;;;;;;;5.03;3.37;;;;;;;21.52;64.10;100873.14;5154131;56;1138615;-78
2021/06/28 07:28:20;;;;;;;5.47;3.22;;;;;;;21.75;63.75;100878.47;5156576;56;1138654;-80
2021/06/28 07:33:29;;;;;;;6.78;3.80;;;;;;;21.95;63.09;100877.44;5126276;56;1138727;-80
2021/06/28 07:38:34;;;;;;;3.45;3.15;;;;;;;22.34;63.23;100869.10;5094833;56;1138826;-83
2021/06/28 07:43:40;;;;;;;5.78;3.30;;;;;;;22.34;63.23;100869.10;5103677;55;1138764;-81
2021/06/28 07:48:46;;;;;;;3.27;2.98;;;;;;;22.61;61.65;100872.45;5097999;56;1139051;-85
2021/06/28 07:53:51;;;;;;;3.40;3.10;;;;;;;22.73;60.33;100870.13;5095754;55;1138676;-79
2021/06/28 07:58:57;;;;;;;7.00;3.57;;;;;;;22.88;59.90;100862.03;5084423;55;1138898;-80
2021/06/28 08:04:03;;;;;;;4.12;3.70;;;;;;;22.98;59.70;100862.55;5079363;56;1138840;-75
2021/06/28 08:09:09;;;;;;;5.10;3.17;;;;;;;23.16;60.21;100865.65;5080719;56;1138693;-86
2021/06/28 08:14:17;;;;;;;7.00;3.50;;;;;;;23.37;60.20;100860.26;5058435;56;1138613;-78
2021/06/28 08:19:23;;;;;;;3.17;2.90;;;;;;;23.62;58.65;100861.20;5069608;56;1138788;-83
2021/06/28 08:24:29;;;;;;;3.12;2.90;;;;;;;23.77;58.87;100860.08;5075206;56;1138761;-82
2021/06/28 08:29:35;;;;;;;5.35;3.08;;;;;;;23.92;58.24;100855.92;5071900;56;1138593;-76
2021/06/28 08:34:41;;;;;;;2.67;2.50;;;;;;;24.15;58.30;100859.17;5068736;56;1138678;-80
2021/06/28 08:39:46;;;;;;;3.00;2.80;;;;;;;24.30;56.61;100857.72;5076535;56;1138704;-77
2021/06/28 08:44:53;;;;;;;3.05;2.85;;;;;;;24.42;56.90;100855.30;5079237;56;1138889;-76
2021/06/28 08:49:59;;;;;;;3.35;2.92;;;;;;;24.46;55.68;100849.27;5127279;55;1138750;-84
2021/06/28 08:55:07;;;;;;;4.05;3.35;;;;;;;24.52;55.73;100851.19;5122786;56;1139274;-80
2021/06/28 09:00:16;;;;;;;3.40;3.10;;;;;;;24.59;53.52;100854.45;5124200;56;1138696;-80
2021/06/28 09:05:22;;;;;;;2.95;2.67;;;;;;;24.61;54.82;100857.23;5111262;56;1138766;-76
2021/06/28 09:10:37;;;;;;;6.60;5.30;;;;;;;24.73;53.17;100856.99;5141306;56;1138580;-81
2021/06/28 09:15:52;;;;;;;3.84;2.94;;;;;;;24.81;53.31;100847.84;5156305;56;1138642;-76
2021/06/28 09:21:10;;;;;;;6.00;2.58;;;;;;;24.97;52.62;100842.09;5123978;56;1138594;-81
2021/06/28 09:26:18;;;;;;;2.75;2.55;;;;;;;24.97;52.62;100842.09;5135245;55;1138654;-77
2021/06/28 09:31:47;;;;;;;2.42;2.22;;;;;;;25.24;51.59;100843.79;5111799;56;1138650;-75
2021/06/28 09:36:56;;;;;;;2.90;2.70;;;;;;;25.40;50.98;100837.13;5114371;56;1138733;-78
2021/06/28 09:42:12;;;;;;;3.22;2.98;;;;;;;25.49;49.63;100841.32;5103767;56;1138791;-82
2021/06/28 09:47:20;;;;;;;2.30;2.10;;;;;;;25.68;49.46;100837.46;5066452;56;1138865;-82
2021/06/28 09:52:40;;;;;;;2.77;2.67;;;;;;;25.85;49.50;100841.41;5090643;56;1138681;-82
2021/06/28 09:58:05;;;;;;;4.87;2.92;;;;;;;26.06;49.53;100840.33;5020267;56;1138733;-75
2021/06/28 10:03:38;;;;;;;2.65;2.55;;;;;;;26.27;49.84;100832.77;5062920;56;1138628;-79
2021/06/28 10:08:46;;;;;;;3.20;2.70;;;;;;;26.28;46.85;100837.15;5136680;56;1138605;-84
2021/06/28 10:14:06;;;;;;;3.17;2.47;;;;;;;26.16;47.84;100835.28;5110988;56;1138766;-80
2021/06/28 10:19:12;;;;;;;2.72;2.52;;;;;;;26.22;46.90;100839.34;5000795;57;1138658;-75
2021/06/28 10:24:18;;;;;;;2.60;2.40;;;;;;;26.37;46.22;100833.69;5001851;57;1138643;-81
2021/06/28 10:29:24;;;;;;;2.80;2.70;;;;;;;26.43;45.35;100825.23;5007050;57;1138914;-80
2021/06/28 10:34:30;;;;;;;4.53;2.92;;;;;;;26.36;43.66;100827.95;5093357;56;1138641;-80
2021/06/28 10:39:35;;;;;;;5.83;2.10;;;;;;;26.25;44.11;100828.08;5111403;55;1138860;-77
2021/06/28 10:44:55;;;;;;;3.95;3.05;;;;;;;26.41;45.51;100821.90;5167436;55;1138790;-79
2021/06/28 10:49:57;;;;;;;3.15;2.85;;;;;;;26.72;45.32;100817.88;5145217;55;1138690;-80
2021/06/28 10:55:28;;;;;;;2.90;2.65;;;;;;;26.79;45.32;100824.09;5089571;56;1138603;-81
2021/06/28 11:00:52;;;;;;;3.60;3.30;;;;;;;26.76;43.67;100826.39;5054040;56;1138909;-79
2021/06/28 11:06:19;;;;;;;7.12;3.05;;;;;;;26.76;43.50;100823.68;4994359;57;1138860;-77
2021/06/28 11:11:49;;;;;;;4.17;3.20;;;;;;;26.89;44.46;100820.88;5059285;56;1138758;-81
2021/06/28 11:17:11;;;;;;;3.83;2.92;;;;;;;27.11;43.90;100813.27;5061838;56;1138718;-77
2021/06/28 11:22:40;;;;;;;4.97;2.83;;;;;;;27.43;42.38;100812.17;4974707;58;1139010;-74
2021/06/28 11:28:02;;;;;;;3.08;2.87;;;;;;;27.61;42.09;100817.69;5077660;56;1138719;-81
2021/06/28 11:33:14;;;;;;;3.65;2.60;;;;;;;27.77;41.71;100809.48;4994509;57;1138684;-80
2021/06/28 11:38:38;;;;;;;4.33;2.65;;;;;;;27.78;40.04;100801.63;5011206;56;1138766;-79
2021/06/28 11:44:01;;;;;;;11.03;2.83;;;;;;;27.91;41.13;100796.58;5152543;55;1138614;-81
2021/06/28 11:49:09;;;;;;;5.60;3.20;;;;;;;27.93;40.48;100793.11;5157689;55;1140831;-78
2021/06/28 11:54:18;;;;;;;3.77;3.47;;;;;;;28.10;39.56;100782.46;5176061;55;1138814;-78
2021/06/28 11:59:29;;;;;;;10.60;3.25;;;;;;;28.24;41.17;100782.10;5177139;55;1138606;-77
2021/06/28 12:04:37;;;;;;;3.47;3.17;;;;;;;28.49;40.67;100776.53;5172663;55;1140844;-80
2021/06/28 12:09:46;;;;;;;3.83;2.87;;;;;;;28.45;38.55;100781.30;5160302;55;1138576;-77
2021/06/28 12:14:52;;;;;;;3.58;3.15;;;;;;;28.43;39.43;100773.89;5151831;55;1138928;-80
2021/06/28 12:20:11;;;;;;;5.15;2.58;;;;;;;28.51;39.91;100764.06;5177374;55;1138845;-78
2021/06/28 12:25:20;;;;;;;3.80;2.67;;;;;;;28.61;37.07;100768.41;5176584;55;1138549;-78
2021/06/28 12:30:25;;;;;;;2.77;2.52;;;;;;;28.59;38.29;100774.60;5169076;55;1138690;-79
2021/06/28 12:35:31;;;;;;;3.00;2.70;;;;;;;28.67;39.19;100759.33;5147181;55;1138585;-78
2021/06/28 12:40:42;;;;;;;3.25;3.05;;;;;;;28.98;38.45;100753.64;5168814;55;1138691;-78
2021/06/28 12:45:52;;;;;;;3.87;2.17;;;;;;;29.13;38.22;100752.34;5177462;55;1138711;-79
2021/06/28 12:51:01;;;;;;;3.47;2.85;;;;;;;29.32;36.97;100737.56;5173469;55;1138700;-79
2021/06/28 12:56:18;;;;;;;2.65;2.30;;;;;;;29.30;35.65;100741.06;5140064;55;1138923;-79
2021/06/28 13:01:45;;;;;;;4.10;2.08;;;;;;;29.17;37.03;100733.95;5160092;55;1138757;-81
2021/06/28 13:06:46;;;;;;;4.17;2.37;;;;;;;29.37;37.47;100724.87;5158428;55;1138864;-81
2021/06/28 13:11:57;;;;;;;2.85;2.62;;;;;;;29.44;36.29;100720.70;5167903;55;1138762;-76
2021/06/28 13:17:27;;;;;;;2.40;2.20;;;;;;;29.53;35.22;100719.27;5173030;55;1138863;-80
2021/06/28 13:22:25;;;;;;;3.80;2.37;;;;;;;29.56;35.20;100722.05;5172570;55;1138629;-76
2021/06/28 13:27:33;;;;;;;2.02;1.92;;;;;;;29.72;36.21;100719.42;5160293;55;1138616;-82
2021/06/28 13:32:39;;;;;;;7.42;2.30;;;;;;;29.83;34.83;100714.17;5165342;55;1138825;-78
2021/06/28 13:37:45;;;;;;;2.70;2.25;;;;;;;29.97;35.88;100715.59;5161608;55;1138670;-82
2021/06/28 13:42:56;;;;;;;2.10;2.00;;;;;;;29.99;34.48;100709.36;5088020;56;1138877;-80
2021/06/28 13:48:14;;;;;;;2.70;2.50;;;;;;;30.03;34.93;100712.73;5107023;56;1138887;-78
2021/06/28 13:53:25;;;;;;;2.45;2.05;;;;;;;29.72;32.69;100703.59;5101477;56;1138661;-79
2021/06/28 13:58:30;;;;;;;6.62;2.55;;;;;;;29.57;34.18;100705.45;5079304;55;1138979;-78
2021/06/28 14:03:36;;;;;;;4.47;2.22;;;;;;;29.37;34.40;100706.33;5095890;56;1138902;-81
2021/06/28 14:08:42;;;;;;;2.20;2.10;;;;;;;29.47;35.15;100700.33;5127629;55;1138580;-80
2021/06/28 14:13:48;;;;;;;2.98;1.90;;;;;;;29.64;35.08;100699.86;5043881;56;1138679;-79
2021/06/28 14:18:53;;;;;;;5.05;2.17;;;;;;;29.83;34.66;100691.82;5000319;57;1138558;-77
2021/06/28 14:23:59;;;;;;;3.15;2.52;;;;;;;29.94;34.28;100685.53;5085726;57;1138569;-79
2021/06/28 14:29:05;;;;;;;2.33;2.08;;;;;;;29.93;34.81;100678.95;5035017;57;1138787;-81
2021/06/28 14:34:10;;;;;;;3.95;1.95;;;;;;;30.09;34.76;100668.66;5001058;57;1138615;-79
2021/06/28 14:39:16;;;;;;;2.75;2.10;;;;;;;30.40;35.56;100664.03;4937499;58;1138843;-80
2021/06/28 14:44:22;;;;;;;6.58;2.17;;;;;;;30.68;32.93;100664.56;5044366;56;1138635;-80
2021/06/28 14:49:28;;;;;;;3.00;2.60;;;;;;;30.75;32.85;100655.66;5061071;56;1138533;-85
2021/06/28 14:54:34;;;;;;;2.47;2.17;;;;;;;30.87;32.16;100654.73;5037501;57;1139182;-79
2021/06/28 14:59:40;;;;;;;3.58;2.00;;;;;;;31.02;32.60;100654.42;5041507;57;1138687;-77
2021/06/28 15:04:46;;;;;;;7.92;7.20;;;;;;;30.97;31.16;100655.73;5039563;57;1138776;-82
2021/06/28 15:09:54;;;;;;;2.55;2.37;;;;;;;30.73;32.13;100651.52;5060906;55;1138667;-79
2021/06/28 15:15:00;;;;;;;8.13;2.30;;;;;;;30.80;31.93;100649.99;5058323;57;1138744;-83
2021/06/28 15:20:07;;;;;;;7.33;2.70;;;;;;;30.89;32.16;100646.58;5063375;57;1138680;-79
2021/06/28 15:25:13;;;;;;;21.77;3.08;;;;;;;31.02;31.20;100638.03;5063379;55;1138694;-76
2021/06/28 15:30:30;;;;;;;3.92;2.47;;;;;;;31.19;31.94;100638.58;5063254;55;1140859;-83
2021/06/28 15:35:30;;;;;;;2.73;2.53;;;;;;;31.22;32.01;100632.61;5062809;55;1138715;-79
2021/06/28 15:40:35;;;;;;;3.02;2.83;;;;;;;31.17;32.05;100629.83;5062066;57;1138706;-82
2021/06/28 15:45:41;;;;;;;2.33;2.12;;;;;;;31.02;30.77;100629.84;5012054;57;1138987;-80
2021/06/28 15:50:47;;;;;;;2.25;2.15;;;;;;;30.73;30.42;100619.57;4969911;57;1138681;-82
2021/06/28 15:55:55;;;;;;;5.65;2.30;;;;;;;30.64;31.24;100621.08;4990756;57;1138739;-77
2021/06/28 16:01:00;;;;;;;2.42;2.30;;;;;;;30.61;32.28;100613.37;4978819;57;1139050;-79
2021/06/28 16:06:06;;;;;;;2.02;1.90;;;;;;;30.59;31.71;100622.89;4972486;57;1138921;-77
2021/06/28 16:11:11;;;;;;;7.28;2.47;;;;;;;30.69;33.31;100616.25;5002200;57;1138682;-77
2021/06/28 16:16:17;;;;;;;2.62;2.40;;;;;;;30.83;33.49;100611.27;5002402;57;1138539;-79
2021/06/28 16:21:23;;;;;;;3.90;2.37;;;;;;;30.95;33.46;100610.63;4994537;57;1138871;-81
2021/06/28 16:26:29;;;;;;;4.08;2.25;;;;;;;31.05;33.71;100611.59;4928415;58;1138707;-80
2021/06/28 16:31:37;;;;;;;4.28;2.20;;;;;;;31.01;34.23;100614.52;4970506;58;1138743;-79
2021/06/28 16:36:43;;;;;;;12.58;2.22;;;;;;;30.96;34.02;100610.37;4924708;58;1138598;-75
2021/06/28 16:41:48;;;;;;;6.42;2.52;;;;;;;30.80;34.29;100610.39;4962399;57;1140624;-79
2021/06/28 16:46:54;;;;;;;2.58;2.37;;;;;;;30.73;34.63;100600.99;5029063;55;1138596;-77
2021/06/28 16:52:00;;;;;;;2.20;2.15;;;;;;;30.71;34.86;100597.14;5055096;57;1138702;-77
2021/06/28 16:57:07;;;;;;;4.72;2.10;;;;;;;30.61;34.56;100597.53;5056274;56;1138822;-86
2021/06/28 17:02:12;;;;;;;6.87;2.72;;;;;;;30.49;34.07;100597.59;5050365;56;1138899;-83
2021/06/28 17:07:18;;;;;;;5.55;2.80;;;;;;;30.39;34.27;100600.17;4988914;57;1138659;-82
2021/06/28 17:12:23;;;;;;;7.10;3.08;;;;;;;30.21;34.80;100599.03;5038952;57;1138679;-78
2021/06/28 17:17:29;;;;;;;5.55;2.47;;;;;;;30.04;35.33;100594.38;5054852;57;1138841;-81
2021/06/28 17:22:35;;;;;;;11.60;3.80;;;;;;;29.96;35.10;100594.72;5071449;56;1138749;-78
2021/06/28 17:27:41;;;;;;;6.75;5.10;;;;;;;29.99;35.19;100590.17;5054673;57;1140643;-80
2021/06/28 17:32:47;;;;;;;5.60;3.37;;;;;;;30.01;34.95;100595.39;5058038;56;1138754;-79
2021/06/28 17:37:53;;;;;;;14.12;3.50;;;;;;;29.98;34.80;100597.23;5070485;57;1138731;-77
2021/06/28 17:42:59;;;;;;;3.20;2.92;;;;;;;29.96;35.05;100596.08;4989559;57;1140866;-76
2021/06/28 17:48:05;;;;;;;9.40;2.70;;;;;;;29.93;35.22;100593.04;5066423;56;1138829;-79
2021/06/28 17:53:11;;;;;;;19.10;5.43;;;;;;;29.88;35.25;100588.31;5127278;56;1138683;-76
2021/06/28 17:58:18;;;;;;;9.20;2.80;;;;;;;29.74;35.83;100593.23;5101206;56;1140788;-80
2021/06/28 18:03:23;;;;;;;9.03;3.25;;;;;;;29.60;36.33;100583.69;5048697;56;1138797;-81
2021/06/28 18:08:29;;;;;;;4.50;2.58;;;;;;;29.45;36.86;100580.66;5085752;57;1138644;-77
2021/06/28 18:13:35;;;;;;;108.67;7.95;;;;;;;29.25;37.12;100582.91;5085020;57;1138784;-82
2021/06/28 18:18:41;;;;;;;13.48;3.35;;;;;;;29.21;37.85;100579.83;5085231;57;1142787;-80
2021/06/28 18:23:47;;;;;;;24.35;7.10;;;;;;;29.19;38.56;100577.05;5085866;57;1141281;-79
2021/06/28 18:28:53;;;;;;;14.05;4.80;;;;;;;29.02;39.42;100567.45;5085186;57;1141020;-80
2021/06/28 18:33:58;;;;;;;5.00;3.50;;;;;;;28.77;40.20;100574.46;5084836;57;1140826;-82
2021/06/28 18:39:09;;;;;;;12.78;3.30;;;;;;;28.57;40.65;100572.64;5077823;57;1138784;-79
2021/06/28 18:44:19;;;;;;;41.70;9.90;;;;;;;28.41;40.97;100571.45;5010371;57;1140757;-81
2021/06/28 18:49:25;;;;;;;26.55;4.65;;;;;;;28.11;41.96;100567.92;5078270;57;1140785;-80
2021/06/28 18:54:30;;;;;;;14.65;4.20;;;;;;;28.11;41.96;100567.92;5085056;57;1140663;-80
2021/06/28 18:59:38;;;;;;;14.70;5.12;;;;;;;28.15;42.37;100578.08;5084548;57;1140850;-81
2021/06/28 19:04:43;;;;;;;15.93;4.60;;;;;;;28.20;42.51;100578.79;5083130;57;1140863;-80
2021/06/28 19:09:49;;;;;;;14.58;5.10;;;;;;;28.27;42.43;100589.84;5083270;57;1140903;-80
2021/06/28 19:14:55;;;;;;;12.75;4.67;;;;;;;28.29;42.72;100592.33;5001034;57;1262423;-81
2021/06/28 19:20:00;;;;;;;15.45;4.53;;;;;;;28.24;43.36;100591.70;5008110;57;1140777;-80
2021/06/28 19:25:07;;;;;;;19.05;4.90;;;;;;;28.13;43.61;100589.72;5014241;56;1140715;-80
2021/06/28 19:30:13;;;;;;;57.27;7.90;;;;;;;27.97;44.17;100598.53;5062191;57;1140760;-79
2021/06/28 19:35:19;;;;;;;54.23;8.10;;;;;;;27.65;44.45;100609.63;5106482;56;1140926;-76
2021/06/28 19:40:25;;;;;;;43.92;7.67;;;;;;;27.46;45.19;100607.98;5081076;56;1140917;-81
2021/06/28 19:45:31;;;;;;;16.27;6.45;;;;;;;27.45;45.77;100614.46;5144127;56;1140696;-83
2021/06/28 19:50:37;;;;;;;19.07;6.05;;;;;;;27.22;45.95;100618.38;5114707;56;1140857;-83
2021/06/28 19:55:43;;;;;;;39.97;7.40;;;;;;;27.05;46.62;100620.02;5123024;56;1140658;-86
2021/06/28 20:00:49;;;;;;;26.00;5.47;;;;;;;26.98;46.93;100621.45;5079509;57;1140810;-82
2021/06/28 20:05:55;;;;;;;29.98;6.58;;;;;;;26.79;46.83;100632.76;5048622;57;1140802;-82
2021/06/28 20:11:01;;;;;;;25.10;5.20;;;;;;;26.55;47.26;100643.09;5048560;57;1140885;-80
2021/06/28 20:16:07;;;;;;;19.52;4.62;;;;;;;26.39;47.80;100634.14;5049276;57;1140924;-83
2021/06/28 20:21:15;;;;;;;24.63;4.20;;;;;;;26.19;47.54;100630.99;5048534;57;1140780;-82
2021/06/28 20:26:20;;;;;;;12.78;4.25;;;;;;;25.97;47.93;100632.39;5085339;56;1140673;-80
2021/06/28 20:31:27;;;;;;;9.68;4.62;;;;;;;25.84;48.24;100625.14;5079486;56;1140686;-86
2021/06/28 20:36:33;;;;;;;8.95;4.83;;;;;;;25.89;48.33;100631.27;5069735;56;1138647;-84
2021/06/28 20:41:39;;;;;;;10.05;5.03;;;;;;;25.93;48.33;100631.98;5079594;57;1138589;-81
2021/06/28 20:46:45;;;;;;;23.85;8.20;;;;;;;25.90;48.51;100637.00;5106877;56;1140766;-82
2021/06/28 20:51:50;;;;;;;20.20;7.10;;;;;;;25.90;48.85;100635.65;5107024;56;1140880;-80
2021/06/28 20:56:58;;;;;;;44.25;7.25;;;;;;;25.87;48.93;100638.78;5094240;56;1140769;-80
2021/06/28 21:02:04;;;;;;;17.65;6.55;;;;;;;25.43;49.40;100639.03;5079532;56;1140712;-80
2021/06/28 21:07:09;;;;;;;12.85;6.22;;;;;;;25.43;49.40;100639.03;5099412;56;1141002;-77
2021/06/28 21:12:15;;;;;;;16.90;6.95;;;;;;;25.15;50.07;100647.44;5076420;56;1140805;-81
2021/06/28 21:17:21;;;;;;;12.93;6.22;;;;;;;25.15;50.93;100646.61;5121913;56;1140885;-79
2021/06/28 21:22:26;;;;;;;14.78;9.73;;;;;;;25.16;51.07;100650.98;5123289;56;1140723;-82
2021/06/28 21:27:32;;;;;;;36.53;17.82;;;;;;;25.07;51.06;100651.70;5123557;56;1140708;-78
2021/06/28 21:32:38;;;;;;;10.18;7.08;;;;;;;24.85;51.16;100664.61;5121272;56;1143021;-79
2021/06/28 21:37:45;;;;;;;11.43;4.45;;;;;;;24.72;51.67;100659.20;5099490;56;1140619;-77
2021/06/28 21:42:50;;;;;;;6.30;5.08;;;;;;;24.65;51.81;100654.82;5101566;56;1140745;-80
2021/06/28 21:47:56;;;;;;;10.43;4.90;;;;;;;24.49;51.91;100645.23;5084696;57;1138595;-82
2021/06/28 21:53:02;;;;;;;4.52;4.20;;;;;;;24.42;52.34;100641.19;5084784;57;1140899;-82
2021/06/28 21:58:08;;;;;;;4.78;4.37;;;;;;;24.22;52.31;100638.94;5084997;57;1138756;-81
2021/06/28 22:03:14;;;;;;;4.72;4.33;;;;;;;24.08;53.00;100639.95;5084970;57;1138604;-81
2021/06/28 22:08:19;;;;;;;5.75;5.25;;;;;;;24.08;53.84;100644.83;5084658;57;1138622;-79
2021/06/28 22:13:25;;;;;;;9.78;6.58;;;;;;;24.13;54.08;100647.77;5085034;57;1138818;-81
2021/06/28 22:18:31;;;;;;;20.45;7.15;;;;;;;24.14;54.02;100641.30;5084617;57;1138587;-78
2021/06/28 22:23:37;;;;;;;9.20;6.47;;;;;;;24.17;53.94;100637.36;5084514;57;1140878;-79
2021/06/28 22:28:42;;;;;;;7.33;5.70;;;;;;;24.05;53.73;100642.53;5084641;57;1138587;-79
2021/06/28 22:33:49;;;;;;;13.88;7.55;;;;;;;24.03;54.21;100643.25;5084535;57;1138569;-79
2021/06/28 22:38:55;;;;;;;15.88;8.20;;;;;;;23.91;54.14;100640.83;5084962;57;1140671;-80
2021/06/28 22:44:01;;;;;;;14.05;7.75;;;;;;;23.86;54.41;100636.54;5158130;56;1140662;-80
2021/06/28 22:49:07;;;;;;;20.48;7.58;;;;;;;23.69;54.29;100634.71;5160585;56;1140731;-81
2021/06/28 22:54:15;;;;;;;13.20;8.25;;;;;;;23.58;54.67;100638.51;5160513;56;1140813;-84
2021/06/28 22:59:21;;;;;;;11.45;7.25;;;;;;;23.49;55.01;100639.17;5161821;56;1140704;-80
2021/06/28 23:04:27;;;;;;;12.53;6.33;;;;;;;23.34;55.31;100637.13;5161821;56;1140657;-79
2021/06/28 23:09:32;;;;;;;8.93;5.15;;;;;;;23.05;55.18;100638.19;5161748;56;1140688;-76
2021/06/28 23:14:38;;;;;;;6.80;5.37;;;;;;;22.69;55.57;100632.90;5163060;56;1138703;-84